Time;durP1;ratioP1;P1;durP2;ratioP2;P2;SDS_P1;SDS_P2;PMS_P1;PMS_P2;Temp;Humidity;BMP_temperature;BMP_pressure;BME280_temperature;BME280_humidity;BME280_pressure;Samples;Min_cycle;Max_cycle;Signal;HPM_P1;HPM_P2
2022/12/03 00:00:56;;;;;;;30.03;17.30;;;3.40;42.00;;;;;;4996957;28;20464;-72
2022/12/03 00:03:22;;;;;;;34.90;16.60;;;3.40;42.10;;;;;;5000733;28;20463;-71
2022/12/03 00:05:49;;;;;;;36.10;18.50;;;3.40;42.10;;;;;;4989728;28;20476;-71
2022/12/03 00:08:16;;;;;;;38.20;18.10;;;3.40;42.30;;;;;;4998708;28;20467;-71
2022/12/03 00:10:43;;;;;;;35.80;18.90;;;3.40;42.40;;;;;;4999400;28;20457;-71
2022/12/03 00:13:11;;;;;;;39.30;19.00;;;3.40;42.50;;;;;;5001423;28;20459;-71
2022/12/03 00:15:38;;;;;;;36.10;17.30;;;3.40;42.50;;;;;;4985662;28;20486;-71
2022/12/03 00:18:05;;;;;;;38.40;18.33;;;3.50;42.60;;;;;;5000747;28;20464;-71
2022/12/03 00:20:32;;;;;;;34.10;17.40;;;3.50;42.40;;;;;;4997699;28;20487;-70
2022/12/03 00:22:58;;;;;;;32.53;17.20;;;3.50;42.30;;;;;;4995891;28;20487;-70
2022/12/03 00:25:25;;;;;;;41.00;19.37;;;3.60;42.30;;;;;;4995532;28;20490;-70
2022/12/03 00:27:52;;;;;;;35.47;16.63;;;3.60;41.70;;;;;;4997005;28;20452;-71
2022/12/03 00:30:20;;;;;;;31.43;16.13;;;3.60;41.60;;;;;;4998845;28;20691;-71
2022/12/03 00:32:47;;;;;;;37.07;18.97;;;3.60;41.60;;;;;;4992811;28;20471;-70
2022/12/03 00:35:14;;;;;;;36.07;17.80;;;3.60;41.90;;;;;;4997977;28;20519;-70
2022/12/03 00:37:41;;;;;;;34.67;17.07;;;3.60;41.90;;;;;;5003812;28;20455;-71
2022/12/03 00:40:08;;;;;;;36.30;17.03;;;3.60;41.90;;;;;;4994333;28;20587;-71
2022/12/03 00:42:35;;;;;;;36.40;18.87;;;3.60;41.90;;;;;;4995866;28;20459;-71
2022/12/03 00:45:02;;;;;;;37.23;20.13;;;3.50;42.00;;;;;;4993722;28;20466;-71
2022/12/03 00:47:31;;;;;;;38.23;19.03;;;3.50;42.00;;;;;;4985187;28;20456;-71
2022/12/03 00:49:57;;;;;;;35.73;17.90;;;3.50;42.10;;;;;;5000874;28;20455;-71
2022/12/03 00:52:24;;;;;;;40.67;18.63;;;3.60;42.10;;;;;;4994872;28;20469;-71
2022/12/03 00:54:51;;;;;;;38.83;17.67;;;3.60;42.10;;;;;;4996803;28;20460;-71
2022/12/03 00:57:18;;;;;;;38.57;19.07;;;3.60;42.10;;;;;;4988856;28;20467;-71
2022/12/03 00:59:44;;;;;;;37.60;19.20;;;3.60;42.20;;;;;;4990174;28;20480;-71
2022/12/03 01:02:11;;;;;;;38.87;21.47;;;3.60;42.30;;;;;;4994483;28;20618;-71
2022/12/03 01:04:39;;;;;;;44.50;19.97;;;3.60;42.30;;;;;;4995461;28;20479;-71
2022/12/03 01:07:06;;;;;;;38.33;19.20;;;3.60;42.30;;;;;;4987950;28;20483;-71
2022/12/03 01:09:33;;;;;;;38.67;20.03;;;3.70;42.30;;;;;;4994172;28;21094;-71
2022/12/03 01:12:00;;;;;;;43.33;20.53;;;3.70;42.20;;;;;;4991817;28;20460;-70
2022/12/03 01:14:29;;;;;;;38.37;19.97;;;3.70;42.20;;;;;;4996013;28;20834;-70
2022/12/03 01:16:56;;;;;;;40.80;19.63;;;3.80;42.20;;;;;;4993842;28;20579;-71
2022/12/03 01:19:23;;;;;;;43.37;20.50;;;3.80;42.00;;;;;;4990266;28;20866;-70
2022/12/03 01:21:51;;;;;;;44.20;20.40;;;3.80;42.00;;;;;;4995127;28;20531;-69
2022/12/03 01:24:19;;;;;;;44.33;21.93;;;3.80;42.00;;;;;;4982387;28;20464;-71
2022/12/03 01:26:46;;;;;;;40.10;21.10;;;3.80;41.90;;;;;;4993205;28;20559;-70
2022/12/03 01:29:13;;;;;;;44.37;20.37;;;3.80;42.00;;;;;;4993000;28;20464;-71
2022/12/03 01:34:25;;;;;;;37.07;18.60;;;3.90;42.00;;;;;;4985869;28;20467;-71
2022/12/03 01:36:53;;;;;;;43.07;21.27;;;3.90;41.70;;;;;;4991018;28;20509;-71
2022/12/03 01:39:20;;;;;;;42.27;22.63;;;3.90;41.60;;;;;;4993777;28;20553;-70
2022/12/03 01:41:48;;;;;;;39.77;19.90;;;3.90;41.50;;;;;;4995628;28;20941;-70
2022/12/03 01:44:18;;;;;;;31.40;16.63;;;3.80;41.40;;;;;;4995111;28;20929;-71
2022/12/03 01:46:46;;;;;;;29.10;16.50;;;3.90;40.50;;;;;;4993957;28;20490;-70
2022/12/03 01:49:18;;;;;;;26.30;15.37;;;3.80;40.20;;;;;;4996524;28;20468;-70
2022/12/03 01:51:46;;;;;;;30.10;16.23;;;3.80;40.10;;;;;;4996411;28;20457;-70
2022/12/03 01:54:18;;;;;;;29.00;17.73;;;3.80;40.50;;;;;;4994130;28;20831;-71
2022/12/03 01:56:45;;;;;;;31.70;16.80;;;3.70;40.60;;;;;;4995607;28;21099;-71
2022/12/03 01:59:16;;;;;;;28.17;15.53;;;3.70;40.70;;;;;;4993144;28;20895;-71
2022/12/03 02:01:43;;;;;;;30.00;17.77;;;3.70;40.20;;;;;;4996942;28;20539;-71
2022/12/03 02:04:13;;;;;;;23.80;15.00;;;3.70;40.20;;;;;;4989846;28;20483;-71
2022/12/03 02:06:41;;;;;;;25.73;14.40;;;3.60;40.30;;;;;;4994322;28;21018;-72
2022/12/03 02:09:10;;;;;;;25.90;15.80;;;3.60;40.10;;;;;;4984307;28;20952;-72
2022/12/03 02:11:42;;;;;;;28.07;15.10;;;3.50;40.80;;;;;;4994294;28;20465;-72
2022/12/03 02:14:11;;;;;;;30.73;15.30;;;3.50;41.80;;;;;;4988536;28;20985;-70
2022/12/03 02:16:39;;;;;;;30.30;17.70;;;3.50;41.40;;;;;;4995043;28;21084;-71
2022/12/03 02:19:13;;;;;;;27.63;15.97;;;3.50;41.20;;;;;;4987722;28;20972;-70
2022/12/03 02:21:48;;;;;;;27.63;16.17;;;3.50;41.40;;;;;;4987839;28;20461;-71
2022/12/03 02:24:21;;;;;;;25.83;15.80;;;3.50;41.20;;;;;;4989930;28;20452;-69
2022/12/03 02:26:49;;;;;;;26.90;16.43;;;3.50;41.40;;;;;;4996080;28;20477;-69
2022/12/03 02:29:16;;;;;;;28.20;15.80;;;3.50;41.30;;;;;;4990510;28;20668;-70
2022/12/03 02:31:43;;;;;;;29.53;16.47;;;3.50;41.40;;;;;;4993969;28;20595;-70
2022/12/03 02:34:11;;;;;;;27.00;15.10;;;3.60;41.20;;;;;;4991340;28;20472;-70
2022/12/03 02:36:39;;;;;;;28.57;15.83;;;3.60;41.30;;;;;;4995486;28;20479;-69
2022/12/03 02:39:06;;;;;;;25.43;15.23;;;3.60;41.40;;;;;;4993204;28;20452;-70
2022/12/03 02:44:19;;;;;;;25.63;15.63;;;3.60;41.20;;;;;;4989630;28;20452;-70
2022/12/03 02:46:46;;;;;;;30.33;16.60;;;3.60;41.40;;;;;;4992039;28;20494;-71
2022/12/03 02:49:13;;;;;;;28.47;16.10;;;3.60;41.40;;;;;;4987520;28;20469;-70
2022/12/03 02:51:40;;;;;;;35.00;18.13;;;3.60;41.40;;;;;;4995797;28;20833;-70
2022/12/03 02:54:07;;;;;;;27.70;17.00;;;3.60;41.50;;;;;;4989757;28;20465;-71
2022/12/03 02:56:34;;;;;;;30.17;17.17;;;3.70;41.40;;;;;;4996683;28;20884;-71
2022/12/03 02:59:04;;;;;;;33.37;18.33;;;3.70;41.40;;;;;;4996689;28;20482;-70
2022/12/03 03:01:33;;;;;;;28.80;16.03;;;3.70;41.30;;;;;;4993741;28;21380;-71
2022/12/03 03:04:01;;;;;;;29.90;18.30;;;3.80;41.20;;;;;;4987634;28;20477;-70
2022/12/03 03:06:28;;;;;;;32.73;18.20;;;3.80;41.20;;;;;;4984222;28;21095;-70
2022/12/03 03:08:55;;;;;;;33.03;16.80;;;3.80;41.20;;;;;;4988528;28;20467;-69
2022/12/03 03:11:23;;;;;;;27.77;14.60;;;3.80;41.30;;;;;;4988958;28;20499;-72
2022/12/03 03:13:50;;;;;;;26.03;15.70;;;3.90;41.10;;;;;;4993335;28;20539;-71
2022/12/03 03:16:17;;;;;;;27.47;16.23;;;3.90;40.60;;;;;;4983832;28;20508;-71
2022/12/03 03:18:45;;;;;;;27.37;16.20;;;3.90;40.60;;;;;;4991629;28;20812;-70
2022/12/03 03:21:13;;;;;;;29.17;15.60;;;3.90;40.60;;;;;;4991135;28;20480;-69
2022/12/03 03:23:40;;;;;;;28.77;16.37;;;3.80;40.60;;;;;;4991833;28;20533;-70
2022/12/03 03:26:09;;;;;;;29.73;16.80;;;3.80;41.10;;;;;;4991318;28;21091;-71
2022/12/03 03:28:39;;;;;;;26.70;15.73;;;3.80;41.20;;;;;;4990400;28;20985;-71
2022/12/03 03:31:07;;;;;;;30.07;15.40;;;3.80;41.30;;;;;;4990007;28;20495;-70
2022/12/03 03:33:34;;;;;;;29.40;16.07;;;3.80;41.10;;;;;;4990622;28;20464;-70
2022/12/03 03:36:03;;;;;;;27.83;16.10;;;3.80;40.90;;;;;;4991217;28;20479;-72
2022/12/03 03:38:31;;;;;;;27.90;16.47;;;3.80;41.00;;;;;;4992002;28;20496;-69
2022/12/03 03:41:00;;;;;;;32.60;16.57;;;3.80;41.20;;;;;;4990079;28;20479;-71
2022/12/03 03:43:28;;;;;;;29.40;16.27;;;3.80;41.20;;;;;;4994866;28;20452;-71
2022/12/03 03:45:55;;;;;;;29.60;17.10;;;3.80;41.30;;;;;;4989252;28;20942;-70
2022/12/03 03:48:22;;;;;;;36.80;18.17;;;3.80;41.10;;;;;;4995591;28;20460;-70
2022/12/03 03:50:51;;;;;;;29.07;16.40;;;3.80;41.20;;;;;;4991589;28;20456;-69
2022/12/03 03:53:21;;;;;;;32.37;17.23;;;3.80;41.10;;;;;;4987293;28;20572;-70
2022/12/03 03:55:48;;;;;;;30.50;17.27;;;3.80;41.10;;;;;;4984733;28;20493;-71
2022/12/03 03:58:14;;;;;;;31.40;17.73;;;3.80;41.20;;;;;;4996580;28;20967;-70
2022/12/03 04:00:42;;;;;;;33.13;17.07;;;3.80;41.30;;;;;;4998742;28;20501;-70
2022/12/03 04:03:10;;;;;;;31.10;17.73;;;3.80;41.60;;;;;;4994537;28;20812;-70
2022/12/03 04:05:37;;;;;;;33.90;18.33;;;3.80;41.40;;;;;;4991977;28;20491;-70
2022/12/03 04:08:04;;;;;;;34.80;18.43;;;3.80;41.10;;;;;;4989001;28;20735;-71
2022/12/03 04:13:17;;;;;;;38.37;18.33;;;3.80;41.60;;;;;;4995421;28;20478;-72
2022/12/03 04:15:44;;;;;;;36.43;17.50;;;3.80;41.60;;;;;;4995367;28;20487;-72
2022/12/03 04:22:38;;;;;;;34.37;17.17;;;3.70;41.70;;;;;;4999161;28;20483;-70
2022/12/03 04:23:41;;;;;;;34.70;16.73;;;3.70;41.70;;;;;;4992333;28;20569;-72
2022/12/03 04:28:54;;;;;;;37.40;16.67;;;3.70;42.10;;;;;;4998793;28;20207;-72
2022/12/03 04:36:49;;;;;;;33.30;15.40;;;3.70;42.10;;;;;;4993905;28;21007;-71
2022/12/03 04:39:16;;;;;;;34.67;15.63;;;3.70;42.30;;;;;;4999684;28;20720;-71
2022/12/03 04:41:44;;;;;;;31.87;17.40;;;3.70;42.00;;;;;;4993964;28;20657;-72
2022/12/03 04:46:56;;;;;;;28.10;14.80;;;3.70;41.40;;;;;;4995920;28;20470;-71
2022/12/03 04:49:23;;;;;;;28.80;13.90;;;3.60;41.20;;;;;;4998668;28;20610;-71
2022/12/03 04:51:49;;;;;;;29.90;13.60;;;3.60;40.90;;;;;;4997262;28;20464;-71
2022/12/03 04:54:16;;;;;;;29.13;12.30;;;3.60;40.70;;;;;;5001964;28;21107;-72
2022/12/03 04:56:44;;;;;;;31.60;14.27;;;3.60;40.80;;;;;;4993064;28;20484;-72
2022/12/03 04:59:11;;;;;;;29.63;12.50;;;3.60;40.50;;;;;;4994854;28;20976;-71
2022/12/03 05:01:38;;;;;;;28.50;13.73;;;3.50;40.10;;;;;;4992053;28;20488;-72
2022/12/03 05:04:05;;;;;;;26.10;12.40;;;3.50;40.50;;;;;;4997877;28;20463;-71
2022/12/03 05:06:32;;;;;;;25.60;11.83;;;3.40;40.70;;;;;;5004043;23;20515;-72
2022/12/03 05:08:59;;;;;;;28.00;13.00;;;3.40;40.50;;;;;;4995457;28;20455;-73
2022/12/03 05:11:26;;;;;;;22.40;10.63;;;3.30;40.70;;;;;;4983159;28;20464;-71
2022/12/03 05:13:54;;;;;;;27.60;12.70;;;3.30;41.00;;;;;;5001727;28;20837;-70
2022/12/03 05:16:21;;;;;;;27.10;12.97;;;3.30;41.80;;;;;;4999438;28;20471;-70
2022/12/03 05:18:48;;;;;;;32.27;14.27;;;3.30;41.10;;;;;;4996732;28;20460;-73
2022/12/03 05:21:14;;;;;;;26.70;12.67;;;3.30;41.30;;;;;;4995630;28;20862;-73
2022/12/03 05:23:41;;;;;;;33.70;13.80;;;3.20;41.30;;;;;;5001658;28;20619;-71
2022/12/03 05:26:08;;;;;;;25.17;13.20;;;3.20;41.40;;;;;;4996469;28;20476;-71
2022/12/03 05:28:35;;;;;;;32.87;14.20;;;3.30;41.30;;;;;;4998081;28;20459;-72
2022/12/03 05:31:03;;;;;;;30.30;14.20;;;3.20;41.30;;;;;;5000229;28;20481;-72
2022/12/03 05:33:30;;;;;;;30.20;14.20;;;3.20;41.40;;;;;;4998442;28;20459;-71
2022/12/03 05:35:57;;;;;;;29.00;14.30;;;3.20;41.50;;;;;;5000583;28;20547;-74
2022/12/03 05:38:24;;;;;;;31.90;14.63;;;3.30;41.40;;;;;;4998058;28;20571;-71
2022/12/03 05:40:51;;;;;;;30.20;14.43;;;3.30;41.00;;;;;;5003462;28;20483;-72
2022/12/03 05:43:17;;;;;;;25.00;13.17;;;3.30;41.40;;;;;;4994903;28;20471;-73
2022/12/03 05:45:44;;;;;;;28.87;13.93;;;3.30;41.30;;;;;;5003538;28;20901;-72
2022/12/03 05:48:15;;;;;;;28.40;14.73;;;3.30;41.20;;;;;;4995505;28;20468;-71
2022/12/03 05:50:43;;;;;;;31.97;14.77;;;3.20;41.10;;;;;;4993716;28;20551;-73
2022/12/03 05:53:10;;;;;;;32.80;15.13;;;3.20;41.40;;;;;;4998733;28;20475;-71
2022/12/03 05:55:37;;;;;;;32.83;13.07;;;3.10;41.50;;;;;;4998818;28;20516;-70
2022/12/03 05:58:05;;;;;;;29.80;15.00;;;3.20;41.50;;;;;;5000254;28;20467;-71
2022/12/03 06:00:36;;;;;;;36.60;15.07;;;3.10;42.00;;;;;;5005231;28;20578;-71
2022/12/03 06:03:03;;;;;;;32.17;15.87;;;3.10;41.90;;;;;;5000246;28;20464;-72
2022/12/03 06:05:32;;;;;;;30.30;14.40;;;3.00;41.90;;;;;;4996289;28;20842;-72
2022/12/03 06:07:59;;;;;;;41.07;16.20;;;3.10;42.30;;;;;;4996921;28;20467;-71
2022/12/03 06:10:26;;;;;;;30.30;15.10;;;3.00;42.20;;;;;;4994619;28;20853;-71
2022/12/03 06:12:53;;;;;;;33.90;15.43;;;3.10;42.40;;;;;;4999910;28;20467;-72
2022/12/03 06:15:21;;;;;;;36.47;16.43;;;3.10;42.50;;;;;;4996382;28;20518;-73
2022/12/03 06:17:48;;;;;;;38.23;16.43;;;3.10;42.80;;;;;;4999365;28;20547;-70
2022/12/03 06:20:16;;;;;;;37.23;16.57;;;3.10;42.80;;;;;;4991849;28;20511;-73
2022/12/03 06:22:45;;;;;;;35.00;15.80;;;3.10;42.60;;;;;;4990111;28;20565;-72
2022/12/03 06:25:13;;;;;;;34.47;17.60;;;3.10;42.60;;;;;;4996681;28;20480;-70
2022/12/03 06:27:40;;;;;;;33.93;15.17;;;3.10;42.40;;;;;;4996413;28;20550;-74
2022/12/03 06:30:08;;;;;;;31.23;16.40;;;3.20;42.40;;;;;;4993014;28;21119;-72
2022/12/03 06:32:35;;;;;;;33.80;15.13;;;3.20;42.40;;;;;;4997027;28;20483;-71
2022/12/03 06:35:03;;;;;;;32.43;15.03;;;3.20;42.50;;;;;;4999078;28;20852;-73
2022/12/03 06:37:30;;;;;;;35.37;15.90;;;3.20;42.30;;;;;;4999380;28;20530;-71
2022/12/03 06:39:58;;;;;;;28.63;13.90;;;3.20;42.10;;;;;;4998347;28;20739;-72
2022/12/03 06:42:25;;;;;;;32.70;14.00;;;3.10;42.10;;;;;;4998284;28;20780;-72
2022/12/03 06:44:52;;;;;;;32.53;13.20;;;3.10;42.30;;;;;;4996306;28;20515;-71
2022/12/03 06:47:18;;;;;;;33.27;14.63;;;3.10;42.20;;;;;;5000224;28;20543;-73
2022/12/03 06:49:45;;;;;;;29.63;13.80;;;3.20;42.10;;;;;;4999830;28;20551;-72
2022/12/03 06:52:12;;;;;;;27.33;14.30;;;3.20;41.40;;;;;;4994485;28;20539;-74
2022/12/03 06:54:39;;;;;;;32.60;13.80;;;3.20;41.20;;;;;;4999763;28;20876;-72
2022/12/03 06:57:07;;;;;;;30.50;13.83;;;3.20;40.90;;;;;;4991138;28;20482;-72
2022/12/03 06:59:36;;;;;;;25.40;12.77;;;3.20;41.40;;;;;;5001172;28;20829;-73
2022/12/03 07:02:03;;;;;;;26.87;13.43;;;3.20;41.40;;;;;;4991746;28;20664;-71
2022/12/03 07:04:30;;;;;;;30.40;14.40;;;3.20;41.50;;;;;;4993167;28;20879;-73
2022/12/03 07:06:57;;;;;;;31.27;14.27;;;3.10;41.50;;;;;;4988637;28;20536;-72
2022/12/03 07:09:23;;;;;;;29.93;13.47;;;3.10;41.60;;;;;;4991611;28;20474;-72
2022/12/03 07:11:50;;;;;;;26.60;13.73;;;3.10;41.90;;;;;;4997248;28;20464;-71
2022/12/03 07:14:18;;;;;;;31.10;14.47;;;3.20;41.60;;;;;;4995266;28;20514;-72
2022/12/03 07:16:46;;;;;;;29.03;13.87;;;3.20;41.70;;;;;;4993943;28;20494;-73
2022/12/03 07:19:13;;;;;;;27.57;13.43;;;3.20;41.50;;;;;;4997271;28;20472;-71
2022/12/03 07:21:40;;;;;;;30.83;13.70;;;3.20;41.20;;;;;;5001401;28;20511;-74
2022/12/03 07:24:08;;;;;;;27.30;11.90;;;3.20;40.60;;;;;;4994306;28;20459;-73
2022/12/03 07:26:35;;;;;;;27.90;13.43;;;3.10;41.10;;;;;;4995591;28;20872;-73
2022/12/03 07:29:01;;;;;;;31.13;14.40;;;3.00;41.40;;;;;;4997197;28;20901;-70
2022/12/03 07:31:30;;;;;;;31.57;13.30;;;3.00;41.40;;;;;;4992085;28;20491;-72
2022/12/03 07:33:57;;;;;;;31.73;14.90;;;3.00;41.60;;;;;;4994549;28;20464;-70
2022/12/03 07:36:24;;;;;;;25.97;12.50;;;3.00;41.30;;;;;;4985265;28;20480;-73
2022/12/03 07:38:50;;;;;;;32.37;13.67;;;3.00;41.40;;;;;;4990957;28;20903;-71
2022/12/03 07:41:17;;;;;;;25.10;12.27;;;3.00;41.40;;;;;;4987869;28;20847;-71
2022/12/03 07:43:44;;;;;;;27.23;13.47;;;3.00;41.20;;;;;;5000161;28;20452;-72
2022/12/03 07:46:11;;;;;;;27.47;12.10;;;3.00;40.50;;;;;;4994076;28;20491;-74
2022/12/03 07:48:39;;;;;;;29.07;13.10;;;3.00;40.50;;;;;;4991383;28;20492;-72
2022/12/03 07:51:06;;;;;;;26.73;12.70;;;2.90;40.80;;;;;;4991139;28;20899;-72
2022/12/03 07:53:34;;;;;;;28.90;13.53;;;2.90;41.40;;;;;;4993195;28;20474;-73
2022/12/03 07:56:02;;;;;;;25.63;12.47;;;2.80;41.40;;;;;;4987780;28;20900;-71
2022/12/03 07:58:29;;;;;;;27.60;12.63;;;2.80;41.70;;;;;;4991526;28;20455;-73
2022/12/03 08:00:56;;;;;;;26.60;12.07;;;2.80;41.90;;;;;;4989464;28;20579;-71
2022/12/03 08:03:23;;;;;;;29.37;13.10;;;2.70;42.20;;;;;;4991954;28;21277;-74
2022/12/03 08:05:51;;;;;;;28.73;13.60;;;2.70;42.50;;;;;;4996625;28;20843;-71
2022/12/03 08:08:17;;;;;;;30.77;12.50;;;2.70;42.40;;;;;;4997262;28;20469;-71
2022/12/03 08:10:44;;;;;;;30.73;13.17;;;2.70;42.30;;;;;;4994148;28;20550;-73
2022/12/03 08:13:14;;;;;;;28.57;13.33;;;2.80;42.60;;;;;;4997253;28;20846;-73
2022/12/03 08:15:41;;;;;;;26.93;12.60;;;2.80;42.60;;;;;;4995637;28;20484;-72
2022/12/03 08:18:14;;;;;;;34.33;14.17;;;2.80;42.30;;;;;;4991733;28;20464;-72
2022/12/03 08:20:42;;;;;;;26.47;12.33;;;2.80;42.60;;;;;;4998649;28;20772;-73
2022/12/03 08:23:14;;;;;;;27.77;13.60;;;2.80;42.20;;;;;;4989257;28;20508;-71
2022/12/03 08:25:41;;;;;;;26.90;13.27;;;2.80;42.50;;;;;;5000231;28;21047;-72
2022/12/03 08:28:13;;;;;;;36.20;14.37;;;2.80;42.30;;;;;;4995429;28;20472;-73
2022/12/03 08:30:40;;;;;;;28.83;13.37;;;2.90;42.60;;;;;;4998479;28;20900;-71
2022/12/03 08:33:17;;;;;;;27.33;12.40;;;2.90;42.40;;;;;;5000828;28;20691;-73
2022/12/03 08:35:49;;;;;;;28.97;13.37;;;2.90;42.00;;;;;;5003972;28;20879;-72
2022/12/03 08:38:20;;;;;;;26.70;11.60;;;2.90;41.90;;;;;;4996474;28;20868;-70
2022/12/03 08:40:49;;;;;;;30.23;14.53;;;2.80;42.80;;;;;;4996652;28;20460;-71
2022/12/03 08:43:20;;;;;;;29.73;14.00;;;2.90;41.90;;;;;;4997353;28;20467;-70
2022/12/03 08:45:48;;;;;;;30.33;11.63;;;2.90;41.40;;;;;;5000212;28;20487;-71
2022/12/03 08:48:32;;;;;;;30.20;13.43;;;2.80;41.50;;;;;;5002138;28;20474;-72
2022/12/03 08:51:01;;;;;;;28.53;12.57;;;2.80;41.90;;;;;;5003006;28;20467;-71
2022/12/03 08:53:36;;;;;;;21.97;11.17;;;2.70;42.00;;;;;;4995266;28;20882;-71
2022/12/03 08:56:11;;;;;;;30.10;13.67;;;2.70;42.10;;;;;;4995248;28;20509;-73
2022/12/03 08:58:40;;;;;;;25.33;11.03;;;2.70;42.20;;;;;;5000688;28;20475;-71
2022/12/03 09:01:29;;;;;;;24.10;11.83;;;2.70;42.10;;;;;;4995437;28;20550;-72
2022/12/03 09:03:58;;;;;;;22.17;12.03;;;2.70;42.10;;;;;;5002055;28;20513;-72
2022/12/03 09:06:25;;;;;;;23.43;10.37;;;2.60;42.20;;;;;;4995923;28;20685;-72
2022/12/03 09:08:53;;;;;;;25.20;10.60;;;2.60;42.30;;;;;;5005856;28;21173;-72
2022/12/03 09:11:20;;;;;;;20.70;9.57;;;2.60;41.70;;;;;;4993474;28;20734;-71
2022/12/03 09:13:48;;;;;;;28.47;10.17;;;2.60;42.30;;;;;;4995901;28;20823;-72
2022/12/03 09:16:14;;;;;;;21.87;10.43;;;2.50;41.50;;;;;;5001618;28;20511;-73
2022/12/03 09:18:41;;;;;;;20.50;9.77;;;2.50;41.50;;;;;;5002313;28;20460;-71
2022/12/03 09:21:08;;;;;;;21.77;9.67;;;2.50;41.80;;;;;;4999126;28;21196;-72
2022/12/03 09:23:35;;;;;;;21.37;9.47;;;2.50;41.90;;;;;;5000151;28;20463;-70
2022/12/03 09:26:05;;;;;;;18.20;8.80;;;2.50;41.70;;;;;;4999809;28;20483;-72
2022/12/03 09:28:32;;;;;;;23.63;10.87;;;2.50;41.70;;;;;;5001195;28;20467;-72
2022/12/03 09:31:02;;;;;;;18.97;8.13;;;2.50;41.40;;;;;;5003796;28;20812;-71
2022/12/03 09:33:31;;;;;;;20.87;9.33;;;2.50;41.40;;;;;;5000151;28;20883;-72
2022/12/03 09:35:57;;;;;;;18.00;10.13;;;2.60;41.30;;;;;;4999306;28;20563;-72
2022/12/03 09:38:25;;;;;;;20.67;9.67;;;2.60;41.80;;;;;;5001680;28;20471;-72
2022/12/03 09:40:52;;;;;;;20.40;9.30;;;2.60;41.20;;;;;;4992773;28;20824;-71
2022/12/03 09:43:21;;;;;;;21.30;10.30;;;2.60;40.80;;;;;;4995846;28;20462;-73
2022/12/03 09:45:49;;;;;;;17.30;8.30;;;2.60;40.60;;;;;;4997427;28;20774;-74
2022/12/03 09:48:18;;;;;;;18.10;8.70;;;2.70;40.30;;;;;;4991821;28;20471;-72
2022/12/03 09:50:45;;;;;;;20.30;9.60;;;2.60;40.20;;;;;;5001441;28;20459;-72
2022/12/03 09:53:16;;;;;;;19.90;9.80;;;2.60;40.50;;;;;;5002377;28;20510;-71
2022/12/03 09:55:44;;;;;;;20.83;10.20;;;2.60;40.40;;;;;;5000523;28;20996;-71
2022/12/03 09:58:12;;;;;;;17.80;9.00;;;2.70;40.60;;;;;;5002389;28;20623;-72
2022/12/03 10:00:43;;;;;;;20.30;8.87;;;2.70;40.60;;;;;;4996955;28;20488;-73
2022/12/03 10:03:12;;;;;;;19.37;10.00;;;2.70;40.80;;;;;;5000427;28;20868;-72
2022/12/03 10:05:40;;;;;;;23.27;10.87;;;2.70;41.00;;;;;;4992782;28;20477;-73
2022/12/03 10:08:10;;;;;;;27.97;13.90;;;2.70;40.80;;;;;;4998349;28;20464;-74
2022/12/03 10:10:38;;;;;;;23.50;10.70;;;2.80;41.20;;;;;;5002204;28;20460;-73
2022/12/03 10:13:06;;;;;;;25.97;11.00;;;2.80;41.20;;;;;;4998818;28;20464;-72
2022/12/03 10:15:33;;;;;;;24.87;12.63;;;2.90;41.20;;;;;;4989687;28;20477;-73
2022/12/03 10:18:15;;;;;;;25.47;12.10;;;2.90;41.20;;;;;;4993297;28;20956;-73
2022/12/03 10:20:42;;;;;;;26.40;11.80;;;3.00;41.00;;;;;;4998138;28;20466;-71
2022/12/03 10:23:09;;;;;;;25.87;12.23;;;3.00;40.80;;;;;;4996897;28;20483;-73
2022/12/03 10:25:50;;;;;;;23.07;11.97;;;3.10;40.70;;;;;;4993534;28;20483;-72
2022/12/03 10:28:27;;;;;;;20.57;9.90;;;3.20;40.70;;;;;;4996998;28;20459;-71
2022/12/03 10:30:55;;;;;;;20.20;10.50;;;3.20;39.90;;;;;;4996320;28;20475;-71
2022/12/03 10:33:29;;;;;;;21.23;10.70;;;3.10;39.70;;;;;;5003648;28;21019;-74
2022/12/03 10:36:32;;;;;;;19.63;9.43;;;3.10;39.50;;;;;;5002879;28;20602;-71
2022/12/03 10:39:32;;;;;;;20.87;10.50;;;3.10;39.00;;;;;;4996683;28;20459;-72
2022/12/03 10:42:15;;;;;;;20.77;10.40;;;3.10;38.90;;;;;;5002736;28;21039;-74
2022/12/03 10:44:43;;;;;;;22.70;10.97;;;3.00;39.00;;;;;;5000104;28;20538;-74
2022/12/03 10:47:12;;;;;;;22.30;11.47;;;3.00;39.10;;;;;;4998979;28;20495;-72
2022/12/03 10:49:42;;;;;;;21.70;11.07;;;3.00;39.50;;;;;;5001443;28;20804;-73
2022/12/03 10:52:20;;;;;;;25.30;11.83;;;3.00;39.60;;;;;;4996521;28;20606;-72
2022/12/03 10:54:47;;;;;;;25.37;12.03;;;3.00;39.70;;;;;;4999907;28;20467;-73
2022/12/03 10:57:14;;;;;;;23.37;12.40;;;3.00;39.70;;;;;;4998123;28;20471;-74
2022/12/03 10:59:42;;;;;;;20.57;10.10;;;3.00;39.30;;;;;;4999806;28;20468;-74
2022/12/03 11:02:19;;;;;;;20.23;10.90;;;2.90;39.20;;;;;;5004810;28;20486;-72
2022/12/03 11:04:48;;;;;;;19.00;9.37;;;2.90;39.30;;;;;;5003821;28;21125;-72
2022/12/03 11:07:17;;;;;;;19.77;10.50;;;2.90;38.90;;;;;;4999255;28;20644;-74
2022/12/03 11:09:45;;;;;;;17.10;8.60;;;2.90;38.60;;;;;;5012569;23;21031;-65
2022/12/03 11:12:19;;;;;;;16.03;8.43;;;2.80;38.80;;;;;;5002333;28;20464;-69
2022/12/03 11:15:06;;;;;;;22.00;10.20;;;2.80;39.00;;;;;;4998291;28;20460;-69
2022/12/03 11:17:47;;;;;;;20.33;9.70;;;2.80;39.10;;;;;;5003653;28;20482;-62
2022/12/03 11:21:02;;;;;;;20.47;9.33;;;2.80;38.90;;;;;;4977900;28;20465;-69
2022/12/03 11:24:14;;;;;;;25.47;10.47;;;2.80;39.20;;;;;;4920701;29;20558;-68
2022/12/03 11:27:08;;;;;;;17.30;8.90;;;2.80;39.20;;;;;;4923482;29;20479;-68
2022/12/03 11:30:01;;;;;;;20.70;10.30;;;2.70;39.40;;;;;;4976342;28;20486;-67
2022/12/03 11:33:05;;;;;;;24.53;13.17;;;2.70;40.10;;;;;;4952171;28;20486;-68
2022/12/03 11:36:10;;;;;;;21.50;10.10;;;2.70;39.90;;;;;;4975277;28;20836;-70
2022/12/03 11:38:56;;;;;;;23.57;10.60;;;2.60;39.50;;;;;;4973046;28;20484;-65
2022/12/03 11:41:27;;;;;;;25.73;11.30;;;2.60;40.00;;;;;;4976605;28;20468;-67
2022/12/03 11:44:20;;;;;;;24.30;11.90;;;2.60;40.00;;;;;;4982040;28;20972;-67
2022/12/03 11:46:48;;;;;;;24.23;11.37;;;2.50;40.40;;;;;;4982419;28;20460;-67
2022/12/03 11:49:30;;;;;;;26.87;11.67;;;2.50;40.90;;;;;;4980394;28;20531;-66
2022/12/03 11:51:57;;;;;;;24.57;11.60;;;2.50;41.40;;;;;;4980028;28;20464;-66
2022/12/03 11:54:24;;;;;;;26.20;12.10;;;2.60;41.30;;;;;;4979078;28;20468;-65
2022/12/03 11:56:54;;;;;;;28.73;12.53;;;2.60;41.30;;;;;;4976142;28;20469;-67
2022/12/03 11:59:21;;;;;;;23.73;11.20;;;2.60;40.90;;;;;;4978989;28;20481;-66
2022/12/03 12:01:48;;;;;;;25.17;13.00;;;2.70;41.00;;;;;;4980826;28;20484;-65
2022/12/03 12:04:34;;;;;;;29.67;11.67;;;2.80;40.80;;;;;;4984263;28;20468;-67
2022/12/03 12:07:01;;;;;;;21.20;11.10;;;2.80;40.70;;;;;;4979059;28;20462;-64
2022/12/03 12:09:50;;;;;;;22.10;12.33;;;2.80;40.10;;;;;;4981212;28;20488;-64
2022/12/03 12:12:28;;;;;;;26.00;11.10;;;2.80;40.10;;;;;;4977316;28;20484;-66
2022/12/03 12:14:56;;;;;;;23.80;11.57;;;2.90;40.10;;;;;;4973614;28;20465;-62
2022/12/03 12:17:33;;;;;;;22.40;11.23;;;2.80;39.50;;;;;;4978899;28;20464;-62
2022/12/03 12:20:23;;;;;;;22.13;9.73;;;2.90;38.80;;;;;;4975849;28;20992;-62
2022/12/03 12:22:50;;;;;;;24.77;11.13;;;2.90;38.90;;;;;;4983222;28;20516;-62
2022/12/03 12:25:38;;;;;;;23.40;11.57;;;2.80;38.50;;;;;;4975094;28;20973;-64
2022/12/03 12:28:06;;;;;;;21.90;11.47;;;2.80;39.10;;;;;;4980152;28;20485;-64
2022/12/03 12:30:33;;;;;;;24.80;12.13;;;2.70;39.40;;;;;;4977910;28;20472;-66
2022/12/03 12:33:18;;;;;;;22.47;11.73;;;2.60;39.70;;;;;;4981327;28;20491;-64
2022/12/03 12:35:45;;;;;;;22.43;11.80;;;2.60;40.30;;;;;;4976663;28;20473;-70
2022/12/03 12:38:17;;;;;;;23.57;12.03;;;2.60;40.40;;;;;;4975839;28;20498;-71
2022/12/03 12:40:47;;;;;;;23.17;10.80;;;2.50;40.80;;;;;;4981142;28;20457;-71
2022/12/03 12:43:21;;;;;;;23.07;12.27;;;2.50;41.30;;;;;;4983148;28;20539;-72
2022/12/03 12:45:49;;;;;;;30.60;14.20;;;2.50;41.30;;;;;;4978104;28;20874;-71
2022/12/03 12:48:27;;;;;;;26.57;12.87;;;2.50;41.60;;;;;;4982812;28;20483;-71
2022/12/03 12:50:59;;;;;;;26.77;12.43;;;2.50;41.60;;;;;;4977969;28;20465;-71
2022/12/03 12:53:28;;;;;;;24.87;12.53;;;2.50;41.70;;;;;;4982619;28;20460;-63
2022/12/03 12:55:57;;;;;;;20.43;11.23;;;2.50;41.70;;;;;;4976383;28;20465;-62
2022/12/03 12:58:26;;;;;;;27.80;13.10;;;2.50;40.80;;;;;;4979746;28;20484;-67
2022/12/03 13:00:54;;;;;;;25.13;11.70;;;2.50;40.90;;;;;;4983171;28;20483;-74
2022/12/03 13:03:24;;;;;;;22.17;10.80;;;2.60;40.60;;;;;;4980865;28;20485;-77
2022/12/03 13:05:53;;;;;;;22.83;11.20;;;2.50;40.30;;;;;;4976461;28;20838;-74
2022/12/03 13:08:26;;;;;;;20.60;10.93;;;2.50;40.30;;;;;;4979424;28;20489;-72
2022/12/03 13:10:53;;;;;;;26.77;12.57;;;2.50;40.20;;;;;;4982577;28;20961;-71
2022/12/03 13:13:29;;;;;;;26.67;11.97;;;2.50;40.30;;;;;;4980283;28;20456;-68